sensor_id;sensor_type;location;lat;lon;timestamp;pressure;altitude;pressure_sealevel;temperature;humidity
50268;BME280;36153;50.960;6.220;2022-07-22T00:01:08;101158.91;;;21.06;62.98
50268;BME280;36153;50.960;6.220;2022-07-22T00:04:09;101153.66;;;21.03;63.06
50268;BME280;36153;50.960;6.220;2022-07-22T00:07:09;101162.47;;;21.05;62.96
50268;BME280;36153;50.960;6.220;2022-07-22T00:10:10;101154.63;;;20.98;62.68
50268;BME280;36153;50.960;6.220;2022-07-22T00:13:11;101157.81;;;21.16;62.76
50268;BME280;36153;50.960;6.220;2022-07-22T00:16:11;101155.97;;;21.18;62.63
50268;BME280;36153;50.960;6.220;2022-07-22T00:19:12;101162.19;;;21.17;62.29
50268;BME280;36153;50.960;6.220;2022-07-22T00:22:13;101159.81;;;21.05;62.72
50268;BME280;36153;50.960;6.220;2022-07-22T00:25:13;101154.53;;;21.05;62.79
50268;BME280;36153;50.960;6.220;2022-07-22T00:28:13;101158.00;;;21.07;62.60
50268;BME280;36153;50.960;6.220;2022-07-22T00:31:14;101158.78;;;21.12;62.46
50268;BME280;36153;50.960;6.220;2022-07-22T00:34:14;101157.03;;;21.11;62.71
50268;BME280;36153;50.960;6.220;2022-07-22T00:37:15;101162.94;;;21.22;62.12
50268;BME280;36153;50.960;6.220;2022-07-22T00:40:15;101159.31;;;21.26;62.10
50268;BME280;36153;50.960;6.220;2022-07-22T00:43:16;101156.91;;;21.17;62.14
50268;BME280;36153;50.960;6.220;2022-07-22T00:46:16;101142.81;;;21.15;62.22
50268;BME280;36153;50.960;6.220;2022-07-22T00:49:16;101148.44;;;21.00;62.50
50268;BME280;36153;50.960;6.220;2022-07-22T00:52:18;101148.09;;;21.15;62.60
50268;BME280;36153;50.960;6.220;2022-07-22T00:55:19;101141.91;;;21.16;62.33
50268;BME280;36153;50.960;6.220;2022-07-22T00:58:19;101138.41;;;21.14;62.60
50268;BME280;36153;50.960;6.220;2022-07-22T01:01:22;101146.78;;;20.95;63.28
50268;BME280;36153;50.960;6.220;2022-07-22T01:04:22;101136.03;;;21.03;62.78
50268;BME280;36153;50.960;6.220;2022-07-22T01:07:23;101142.84;;;21.13;62.96
50268;BME280;36153;50.960;6.220;2022-07-22T01:10:23;101141.91;;;21.16;62.89
50268;BME280;36153;50.960;6.220;2022-07-22T01:13:24;101142.69;;;21.21;62.38
50268;BME280;36153;50.960;6.220;2022-07-22T01:16:25;101148.16;;;21.13;62.96
50268;BME280;36153;50.960;6.220;2022-07-22T01:19:26;101136.06;;;21.00;63.39
50268;BME280;36153;50.960;6.220;2022-07-22T01:22:27;101133.19;;;21.11;63.05
50268;BME280;36153;50.960;6.220;2022-07-22T01:25:28;101136.34;;;21.28;62.44
50268;BME280;36153;50.960;6.220;2022-07-22T01:28:29;101129.56;;;21.15;62.76
50268;BME280;36153;50.960;6.220;2022-07-22T01:31:29;101132.59;;;20.98;63.44
50268;BME280;36153;50.960;6.220;2022-07-22T01:34:30;101134.22;;;21.05;63.27
50268;BME280;36153;50.960;6.220;2022-07-22T01:37:33;101130.81;;;20.98;63.42
50268;BME280;36153;50.960;6.220;2022-07-22T01:40:33;101130.75;;;21.03;63.27
50268;BME280;36153;50.960;6.220;2022-07-22T01:43:34;101126.91;;;20.76;63.41
50268;BME280;36153;50.960;6.220;2022-07-22T01:46:35;101126.25;;;20.63;64.05
50268;BME280;36153;50.960;6.220;2022-07-22T01:49:35;101127.13;;;20.63;63.63
50268;BME280;36153;50.960;6.220;2022-07-22T01:52:36;101127.06;;;20.65;64.10
50268;BME280;36153;50.960;6.220;2022-07-22T01:55:36;101130.63;;;20.66;63.45
50268;BME280;36153;50.960;6.220;2022-07-22T01:58:37;101133.28;;;20.64;63.83
50268;BME280;36153;50.960;6.220;2022-07-22T02:01:37;101132.06;;;20.82;63.56
50268;BME280;36153;50.960;6.220;2022-07-22T02:04:38;101134.00;;;20.72;63.17
50268;BME280;36153;50.960;6.220;2022-07-22T02:07:38;101129.75;;;20.63;63.35
50268;BME280;36153;50.960;6.220;2022-07-22T02:10:39;101131.69;;;20.55;64.12
50268;BME280;36153;50.960;6.220;2022-07-22T02:13:39;101133.53;;;20.52;63.62
50268;BME280;36153;50.960;6.220;2022-07-22T02:16:40;101134.88;;;20.74;64.05
50268;BME280;36153;50.960;6.220;2022-07-22T02:19:40;101130.63;;;20.66;63.83
50268;BME280;36153;50.960;6.220;2022-07-22T02:22:41;101128.97;;;20.58;63.95
50268;BME280;36153;50.960;6.220;2022-07-22T02:25:42;101134.88;;;20.74;63.38
50268;BME280;36153;50.960;6.220;2022-07-22T02:28:42;101125.38;;;20.62;63.30
50268;BME280;36153;50.960;6.220;2022-07-22T02:31:42;101128.00;;;20.64;63.39
50268;BME280;36153;50.960;6.220;2022-07-22T02:34:43;101123.53;;;20.68;63.44
50268;BME280;36153;50.960;6.220;2022-07-22T02:37:43;101124.31;;;20.73;63.54
50268;BME280;36153;50.960;6.220;2022-07-22T02:40:43;101122.69;;;20.66;63.60
50268;BME280;36153;50.960;6.220;2022-07-22T02:43:44;101112.03;;;20.70;63.35
50268;BME280;36153;50.960;6.220;2022-07-22T02:46:44;101114.72;;;20.67;63.36
50268;BME280;36153;50.960;6.220;2022-07-22T02:49:45;101113.91;;;20.62;63.97
50268;BME280;36153;50.960;6.220;2022-07-22T02:52:45;101111.94;;;20.73;63.28
50268;BME280;36153;50.960;6.220;2022-07-22T02:55:45;101102.75;;;20.48;63.65
50268;BME280;36153;50.960;6.220;2022-07-22T02:58:46;101103.25;;;20.68;64.00
50268;BME280;36153;50.960;6.220;2022-07-22T03:01:52;101106.59;;;20.76;63.64
50268;BME280;36153;50.960;6.220;2022-07-22T03:04:52;101099.81;;;20.63;63.60
50268;BME280;36153;50.960;6.220;2022-07-22T03:07:52;101108.66;;;20.60;63.73
50268;BME280;36153;50.960;6.220;2022-07-22T03:10:53;101113.09;;;20.58;63.83
50268;BME280;36153;50.960;6.220;2022-07-22T03:13:53;101106.56;;;20.79;63.29
50268;BME280;36153;50.960;6.220;2022-07-22T03:16:54;101106.13;;;20.56;63.94
50268;BME280;36153;50.960;6.220;2022-07-22T03:19:54;101106.00;;;20.62;63.67
50268;BME280;36153;50.960;6.220;2022-07-22T03:22:54;101106.78;;;20.67;63.31
50268;BME280;36153;50.960;6.220;2022-07-22T03:25:56;101105.81;;;20.73;63.41
50268;BME280;36153;50.960;6.220;2022-07-22T03:28:57;101098.97;;;20.59;63.69
50268;BME280;36153;50.960;6.220;2022-07-22T03:31:57;101098.25;;;20.51;63.86
50268;BME280;36153;50.960;6.220;2022-07-22T03:34:57;101096.53;;;20.50;64.15
50268;BME280;36153;50.960;6.220;2022-07-22T03:37:58;101096.38;;;20.58;63.84
50268;BME280;36153;50.960;6.220;2022-07-22T03:40:58;101084.28;;;20.44;64.29
50268;BME280;36153;50.960;6.220;2022-07-22T03:43:58;101093.75;;;20.56;63.95
50268;BME280;36153;50.960;6.220;2022-07-22T03:46:59;101086.31;;;20.77;63.30
50268;BME280;36153;50.960;6.220;2022-07-22T03:49:59;101094.81;;;20.91;62.87
50268;BME280;36153;50.960;6.220;2022-07-22T03:53:02;101093.72;;;21.00;62.64
50268;BME280;36153;50.960;6.220;2022-07-22T03:56:02;101100.09;;;20.91;62.38
50268;BME280;36153;50.960;6.220;2022-07-22T03:59:03;101109.28;;;20.75;62.49
50268;BME280;36153;50.960;6.220;2022-07-22T04:02:04;101107.66;;;20.68;63.20
50268;BME280;36153;50.960;6.220;2022-07-22T04:05:04;101102.19;;;20.77;63.00
50268;BME280;36153;50.960;6.220;2022-07-22T04:08:05;101103.22;;;20.70;63.11
50268;BME280;36153;50.960;6.220;2022-07-22T04:11:05;101107.25;;;20.86;62.84
50268;BME280;36153;50.960;6.220;2022-07-22T04:14:06;101107.06;;;20.95;62.69
50268;BME280;36153;50.960;6.220;2022-07-22T04:17:06;101107.31;;;20.85;62.75
50268;BME280;36153;50.960;6.220;2022-07-22T04:20:07;101106.47;;;20.83;62.83
50268;BME280;36153;50.960;6.220;2022-07-22T04:23:08;101108.84;;;20.95;62.62
50268;BME280;36153;50.960;6.220;2022-07-22T04:26:08;101105.53;;;20.85;62.65
50268;BME280;36153;50.960;6.220;2022-07-22T04:29:08;101103.88;;;20.81;62.91
50268;BME280;36153;50.960;6.220;2022-07-22T04:32:09;101103.66;;;20.90;62.82
50268;BME280;36153;50.960;6.220;2022-07-22T04:35:09;101105.34;;;20.93;62.46
50268;BME280;36153;50.960;6.220;2022-07-22T04:38:10;101107.03;;;20.97;62.64
50268;BME280;36153;50.960;6.220;2022-07-22T04:41:10;101107.06;;;20.95;62.61
50268;BME280;36153;50.960;6.220;2022-07-22T04:44:11;101103.59;;;20.93;62.48
50268;BME280;36153;50.960;6.220;2022-07-22T04:47:12;101112.25;;;21.02;62.44
50268;BME280;36153;50.960;6.220;2022-07-22T04:50:12;101106.00;;;21.04;62.36
50268;BME280;36153;50.960;6.220;2022-07-22T04:53:12;101103.44;;;21.00;62.30
50268;BME280;36153;50.960;6.220;2022-07-22T04:56:13;101111.03;;;21.15;61.95
50268;BME280;36153;50.960;6.220;2022-07-22T04:59:13;101101.34;;;21.14;62.32
50268;BME280;36153;50.960;6.220;2022-07-22T05:02:14;101108.41;;;21.15;61.88
50268;BME280;36153;50.960;6.220;2022-07-22T05:05:14;101108.66;;;21.03;61.75
50268;BME280;36153;50.960;6.220;2022-07-22T05:08:15;101103.09;;;21.15;61.99
50268;BME280;36153;50.960;6.220;2022-07-22T05:11:15;101096.06;;;21.14;61.42
50268;BME280;36153;50.960;6.220;2022-07-22T05:14:15;101102.69;;;21.32;61.19
50268;BME280;36153;50.960;6.220;2022-07-22T05:17:16;101096.63;;;21.28;61.08
50268;BME280;36153;50.960;6.220;2022-07-22T05:20:16;101094.91;;;21.26;59.78
50268;BME280;36153;50.960;6.220;2022-07-22T05:23:17;101093.75;;;21.38;60.59
50268;BME280;36153;50.960;6.220;2022-07-22T05:26:17;101080.97;;;21.57;60.34
50268;BME280;36153;50.960;6.220;2022-07-22T05:29:18;101089.84;;;21.54;60.16
50268;BME280;36153;50.960;6.220;2022-07-22T05:32:18;101087.25;;;21.53;60.43
50268;BME280;36153;50.960;6.220;2022-07-22T05:35:19;101086.81;;;21.70;59.47
50268;BME280;36153;50.960;6.220;2022-07-22T05:38:19;101091.28;;;21.68;59.08
50268;BME280;36153;50.960;6.220;2022-07-22T05:41:20;101093.00;;;21.70;59.00
50268;BME280;36153;50.960;6.220;2022-07-22T05:44:20;101093.94;;;21.68;59.54
50268;BME280;36153;50.960;6.220;2022-07-22T05:47:21;101093.25;;;21.59;58.90
50268;BME280;36153;50.960;6.220;2022-07-22T05:50:21;101092.78;;;21.78;59.13
50268;BME280;36153;50.960;6.220;2022-07-22T05:53:23;101087.69;;;22.03;58.71
50268;BME280;36153;50.960;6.220;2022-07-22T05:56:23;101086.03;;;22.01;58.50
50268;BME280;36153;50.960;6.220;2022-07-22T05:59:23;101083.53;;;21.94;57.97
50268;BME280;36153;50.960;6.220;2022-07-22T06:02:24;101091.47;;;22.27;57.23
50268;BME280;36153;50.960;6.220;2022-07-22T06:05:25;101093.84;;;22.05;57.21
50268;BME280;36153;50.960;6.220;2022-07-22T06:08:25;101086.69;;;22.09;57.72
50268;BME280;36153;50.960;6.220;2022-07-22T06:11:26;101076.66;;;22.20;56.98
50268;BME280;36153;50.960;6.220;2022-07-22T06:14:27;101076.53;;;22.25;56.82
50268;BME280;36153;50.960;6.220;2022-07-22T06:17:28;101082.31;;;22.39;57.17
50268;BME280;36153;50.960;6.220;2022-07-22T06:20:28;101082.22;;;22.44;57.03
50268;BME280;36153;50.960;6.220;2022-07-22T06:23:28;101089.94;;;22.52;56.42
50268;BME280;36153;50.960;6.220;2022-07-22T06:26:29;101092.88;;;22.72;56.73
50268;BME280;36153;50.960;6.220;2022-07-22T06:29:30;101094.03;;;22.63;55.80
50268;BME280;36153;50.960;6.220;2022-07-22T06:32:30;101101.78;;;22.70;55.32
50268;BME280;36153;50.960;6.220;2022-07-22T06:35:30;101094.47;;;22.48;55.58
50268;BME280;36153;50.960;6.220;2022-07-22T06:38:31;101092.28;;;22.62;56.06
50268;BME280;36153;50.960;6.220;2022-07-22T06:41:32;101095.78;;;22.64;55.69
50268;BME280;36153;50.960;6.220;2022-07-22T06:44:32;101097.22;;;22.75;55.78
50268;BME280;36153;50.960;6.220;2022-07-22T06:47:33;101091.88;;;23.05;55.54
50268;BME280;36153;50.960;6.220;2022-07-22T06:50:35;101090.72;;;23.15;54.83
50268;BME280;36153;50.960;6.220;2022-07-22T06:53:35;101091.34;;;23.23;54.76
50268;BME280;36153;50.960;6.220;2022-07-22T06:56:36;101091.19;;;23.28;54.62
50268;BME280;36153;50.960;6.220;2022-07-22T06:59:36;101095.84;;;23.48;53.78
50268;BME280;36153;50.960;6.220;2022-07-22T07:02:36;101092.59;;;23.66;53.30
50268;BME280;36153;50.960;6.220;2022-07-22T07:05:37;101090.13;;;23.60;53.85
50268;BME280;36153;50.960;6.220;2022-07-22T07:08:38;101086.00;;;23.51;52.81
50268;BME280;36153;50.960;6.220;2022-07-22T07:11:39;101082.56;;;23.75;52.88
50268;BME280;36153;50.960;6.220;2022-07-22T07:14:39;101083.09;;;23.59;54.42
50268;BME280;36153;50.960;6.220;2022-07-22T07:17:40;101074.97;;;23.37;54.35
50268;BME280;36153;50.960;6.220;2022-07-22T07:20:40;101078.94;;;23.50;54.97
50268;BME280;36153;50.960;6.220;2022-07-22T07:23:40;101079.91;;;23.48;54.61
50268;BME280;36153;50.960;6.220;2022-07-22T07:26:41;101071.81;;;23.52;54.19
50268;BME280;36153;50.960;6.220;2022-07-22T07:29:41;101077.50;;;23.67;54.04
50268;BME280;36153;50.960;6.220;2022-07-22T07:32:41;101071.00;;;23.76;53.75
50268;BME280;36153;50.960;6.220;2022-07-22T07:35:42;101071.72;;;23.81;54.09
50268;BME280;36153;50.960;6.220;2022-07-22T07:38:42;101071.59;;;23.85;53.65
50268;BME280;36153;50.960;6.220;2022-07-22T07:41:43;101067.66;;;23.71;52.64
50268;BME280;36153;50.960;6.220;2022-07-22T07:44:43;101069.06;;;23.81;52.63
50268;BME280;36153;50.960;6.220;2022-07-22T07:47:43;101072.25;;;23.92;52.63
50268;BME280;36153;50.960;6.220;2022-07-22T07:50:44;101060.25;;;24.06;51.72
50268;BME280;36153;50.960;6.220;2022-07-22T07:53:44;101067.09;;;24.13;51.89
50268;BME280;36153;50.960;6.220;2022-07-22T07:56:44;101060.53;;;24.23;51.51
50268;BME280;36153;50.960;6.220;2022-07-22T07:59:45;101062.63;;;24.39;51.76
50268;BME280;36153;50.960;6.220;2022-07-22T08:02:45;101074.31;;;24.58;50.53
50268;BME280;36153;50.960;6.220;2022-07-22T08:05:46;101075.94;;;24.86;50.09
50268;BME280;36153;50.960;6.220;2022-07-22T08:08:46;101082.66;;;24.73;50.30
50268;BME280;36153;50.960;6.220;2022-07-22T08:11:46;101078.22;;;24.95;50.26
50268;BME280;36153;50.960;6.220;2022-07-22T08:14:47;101088.41;;;24.84;50.12
50268;BME280;36153;50.960;6.220;2022-07-22T08:17:47;101080.97;;;24.70;50.40
50268;BME280;36153;50.960;6.220;2022-07-22T08:20:47;101082.84;;;24.68;49.87
50268;BME280;36153;50.960;6.220;2022-07-22T08:23:48;101084.13;;;24.56;49.59
50268;BME280;36153;50.960;6.220;2022-07-22T08:26:49;101091.47;;;24.75;50.53
50268;BME280;36153;50.960;6.220;2022-07-22T08:29:49;101085.09;;;24.79;49.49
50268;BME280;36153;50.960;6.220;2022-07-22T08:32:49;101074.31;;;24.82;49.17
50268;BME280;36153;50.960;6.220;2022-07-22T08:35:50;101070.78;;;25.03;48.77
50268;BME280;36153;50.960;6.220;2022-07-22T08:38:50;101060.97;;;25.50;48.22
50268;BME280;36153;50.960;6.220;2022-07-22T08:41:51;101059.06;;;25.52;47.21
50268;BME280;36153;50.960;6.220;2022-07-22T08:44:53;101072.03;;;25.82;47.91
50268;BME280;36153;50.960;6.220;2022-07-22T08:47:53;101071.75;;;25.88;46.78
50268;BME280;36153;50.960;6.220;2022-07-22T08:50:54;101065.84;;;26.41;46.07
50268;BME280;36153;50.960;6.220;2022-07-22T08:53:55;101066.09;;;26.16;45.40
50268;BME280;36153;50.960;6.220;2022-07-22T08:56:55;101069.22;;;26.26;45.79
50268;BME280;36153;50.960;6.220;2022-07-22T08:59:58;101071.25;;;26.40;46.34
50268;BME280;36153;50.960;6.220;2022-07-22T09:02:58;101068.75;;;26.56;45.79
50268;BME280;36153;50.960;6.220;2022-07-22T09:05:59;101071.09;;;26.83;44.87
50268;BME280;36153;50.960;6.220;2022-07-22T09:09:03;101061.84;;;26.90;44.08
50268;BME280;36153;50.960;6.220;2022-07-22T09:12:05;101062.31;;;27.17;43.81
50268;BME280;36153;50.960;6.220;2022-07-22T09:15:06;101070.31;;;27.17;42.66
50268;BME280;36153;50.960;6.220;2022-07-22T09:18:06;101068.59;;;26.97;42.86
50268;BME280;36153;50.960;6.220;2022-07-22T09:21:11;101071.50;;;27.12;42.42
50268;BME280;36153;50.960;6.220;2022-07-22T09:24:29;101062.38;;;28.05;42.64
50268;BME280;36153;50.960;6.220;2022-07-22T09:27:29;101067.31;;;27.95;41.46
50268;BME280;36153;50.960;6.220;2022-07-22T09:30:30;101061.28;;;27.56;43.08
50268;BME280;36153;50.960;6.220;2022-07-22T09:33:31;101059.16;;;27.46;42.24
50268;BME280;36153;50.960;6.220;2022-07-22T09:36:31;101066.22;;;27.47;42.44
50268;BME280;36153;50.960;6.220;2022-07-22T09:39:48;101063.09;;;27.19;42.04
50268;BME280;36153;50.960;6.220;2022-07-22T09:42:54;101056.56;;;27.25;43.08
50268;BME280;36153;50.960;6.220;2022-07-22T09:45:56;101058.94;;;27.31;41.61
50268;BME280;36153;50.960;6.220;2022-07-22T09:48:57;101061.97;;;27.42;42.58
50268;BME280;36153;50.960;6.220;2022-07-22T09:51:58;101051.28;;;27.42;42.39
50268;BME280;36153;50.960;6.220;2022-07-22T09:55:00;101048.09;;;27.34;41.26
50268;BME280;36153;50.960;6.220;2022-07-22T09:58:01;101051.44;;;27.39;42.51
50268;BME280;36153;50.960;6.220;2022-07-22T10:01:05;101034.25;;;27.26;41.82
50268;BME280;36153;50.960;6.220;2022-07-22T10:04:06;101024.31;;;27.82;40.04
50268;BME280;36153;50.960;6.220;2022-07-22T10:07:08;101024.44;;;27.79;38.62
50268;BME280;36153;50.960;6.220;2022-07-22T10:10:10;101020.22;;;28.26;38.31
50268;BME280;36153;50.960;6.220;2022-07-22T10:13:11;101011.84;;;28.96;38.57
50268;BME280;36153;50.960;6.220;2022-07-22T10:16:11;101004.38;;;29.33;38.06
50268;BME280;36153;50.960;6.220;2022-07-22T10:19:13;101018.06;;;29.12;37.75
50268;BME280;36153;50.960;6.220;2022-07-22T10:25:56;101017.72;;;29.03;37.16
50268;BME280;36153;50.960;6.220;2022-07-22T10:29:31;101016.38;;;28.80;38.20
50268;BME280;36153;50.960;6.220;2022-07-22T10:32:32;101016.31;;;28.81;37.94
50268;BME280;36153;50.960;6.220;2022-07-22T10:35:45;101019.31;;;28.91;37.62
50268;BME280;36153;50.960;6.220;2022-07-22T10:42:04;101011.28;;;28.75;37.46
50268;BME280;36153;50.960;6.220;2022-07-22T10:45:07;101019.09;;;29.26;35.13
50268;BME280;36153;50.960;6.220;2022-07-22T10:48:19;101010.81;;;29.15;37.68
50268;BME280;36153;50.960;6.220;2022-07-22T10:51:21;101004.41;;;29.01;36.66
50268;BME280;36153;50.960;6.220;2022-07-22T10:54:22;101009.75;;;28.37;38.57
50268;BME280;36153;50.960;6.220;2022-07-22T10:57:31;101010.44;;;28.25;39.51
50268;BME280;36153;50.960;6.220;2022-07-22T11:00:32;101007.66;;;28.76;39.98
50268;BME280;36153;50.960;6.220;2022-07-22T11:03:34;101002.72;;;28.68;38.62
50268;BME280;36153;50.960;6.220;2022-07-22T11:06:34;101005.28;;;28.54;37.61
50268;BME280;36153;50.960;6.220;2022-07-22T11:09:35;100999.47;;;29.09;38.32
50268;BME280;36153;50.960;6.220;2022-07-22T11:12:35;100996.78;;;29.25;35.95
50268;BME280;36153;50.960;6.220;2022-07-22T11:15:36;100993.97;;;29.57;36.70
50268;BME280;36153;50.960;6.220;2022-07-22T11:18:46;100999.28;;;29.12;37.62
50268;BME280;36153;50.960;6.220;2022-07-22T11:21:50;100994.22;;;28.92;37.35
50268;BME280;36153;50.960;6.220;2022-07-22T11:24:50;100989.16;;;28.71;37.40
50268;BME280;36153;50.960;6.220;2022-07-22T11:27:51;100990.09;;;28.86;38.80
50268;BME280;36153;50.960;6.220;2022-07-22T11:31:16;100979.41;;;29.47;37.54
50268;BME280;36153;50.960;6.220;2022-07-22T11:34:17;100979.75;;;30.00;36.93
50268;BME280;36153;50.960;6.220;2022-07-22T11:37:22;100980.88;;;30.39;35.01
50268;BME280;36153;50.960;6.220;2022-07-22T11:40:31;100976.09;;;30.30;35.55
50268;BME280;36153;50.960;6.220;2022-07-22T11:43:40;100968.91;;;30.72;33.69
50268;BME280;36153;50.960;6.220;2022-07-22T11:46:42;100964.66;;;30.55;35.42
50268;BME280;36153;50.960;6.220;2022-07-22T11:49:45;100958.38;;;30.27;35.79
50268;BME280;36153;50.960;6.220;2022-07-22T11:52:52;100970.16;;;30.94;34.76
50268;BME280;36153;50.960;6.220;2022-07-22T11:56:00;100960.31;;;31.86;32.93
50268;BME280;36153;50.960;6.220;2022-07-22T11:59:01;100952.66;;;31.80;31.42
50268;BME280;36153;50.960;6.220;2022-07-22T12:02:05;100951.94;;;31.78;31.00
50268;BME280;36153;50.960;6.220;2022-07-22T12:05:09;100951.34;;;31.34;33.19
50268;BME280;36153;50.960;6.220;2022-07-22T12:08:10;100940.22;;;30.45;34.90
50268;BME280;36153;50.960;6.220;2022-07-22T12:11:11;100945.16;;;31.06;35.67
50268;BME280;36153;50.960;6.220;2022-07-22T12:14:14;100941.13;;;31.39;34.30
50268;BME280;36153;50.960;6.220;2022-07-22T12:17:16;100938.09;;;31.18;33.22
50268;BME280;36153;50.960;6.220;2022-07-22T12:20:16;100933.16;;;31.25;34.97
50268;BME280;36153;50.960;6.220;2022-07-22T12:23:17;100940.72;;;31.71;33.43
50268;BME280;36153;50.960;6.220;2022-07-22T12:26:18;100932.56;;;31.60;32.08
50268;BME280;36153;50.960;6.220;2022-07-22T12:32:30;100923.31;;;31.64;34.89
50268;BME280;36153;50.960;6.220;2022-07-22T12:35:32;100923.31;;;31.64;33.13
50268;BME280;36153;50.960;6.220;2022-07-22T12:38:34;100919.72;;;31.51;33.96
50268;BME280;36153;50.960;6.220;2022-07-22T12:41:48;100927.38;;;31.70;33.23
50268;BME280;36153;50.960;6.220;2022-07-22T12:45:03;100907.06;;;31.65;33.74
50268;BME280;36153;50.960;6.220;2022-07-22T12:51:04;100903.38;;;31.28;33.45
50268;BME280;36153;50.960;6.220;2022-07-22T12:54:05;100905.84;;;31.31;33.09
50268;BME280;36153;50.960;6.220;2022-07-22T12:57:07;100916.41;;;31.73;34.14
50268;BME280;36153;50.960;6.220;2022-07-22T13:00:08;100914.53;;;31.99;32.44
50268;BME280;36153;50.960;6.220;2022-07-22T13:03:09;100921.41;;;31.26;32.19
50268;BME280;36153;50.960;6.220;2022-07-22T13:06:09;100901.78;;;31.64;32.34
50268;BME280;36153;50.960;6.220;2022-07-22T13:09:11;100906.47;;;31.73;32.32
50268;BME280;36153;50.960;6.220;2022-07-22T13:12:11;100909.81;;;31.90;32.85
50268;BME280;36153;50.960;6.220;2022-07-22T13:15:12;100900.38;;;32.45;33.40
50268;BME280;36153;50.960;6.220;2022-07-22T13:18:13;100901.38;;;33.04;33.02
50268;BME280;36153;50.960;6.220;2022-07-22T13:21:13;100908.81;;;32.89;31.56
50268;BME280;36153;50.960;6.220;2022-07-22T13:24:13;100897.13;;;32.77;31.66
50268;BME280;36153;50.960;6.220;2022-07-22T13:27:14;100888.72;;;32.33;31.43
50268;BME280;36153;50.960;6.220;2022-07-22T13:30:15;100886.69;;;32.48;33.08
50268;BME280;36153;50.960;6.220;2022-07-22T13:33:15;100883.19;;;32.35;31.19
50268;BME280;36153;50.960;6.220;2022-07-22T13:36:17;100891.41;;;32.82;32.57
50268;BME280;36153;50.960;6.220;2022-07-22T13:39:17;100899.09;;;32.62;31.12
50268;BME280;36153;50.960;6.220;2022-07-22T13:42:18;100903.66;;;32.62;31.22
50268;BME280;36153;50.960;6.220;2022-07-22T13:45:20;100897.09;;;32.29;31.96
50268;BME280;36153;50.960;6.220;2022-07-22T13:48:21;100893.84;;;32.37;31.71
50268;BME280;36153;50.960;6.220;2022-07-22T13:51:21;100883.94;;;32.97;31.96
50268;BME280;36153;50.960;6.220;2022-07-22T13:54:21;100872.47;;;33.17;32.66
50268;BME280;36153;50.960;6.220;2022-07-22T13:57:22;100876.22;;;33.39;30.29
50268;BME280;36153;50.960;6.220;2022-07-22T14:00:24;100878.16;;;33.26;31.21
50268;BME280;36153;50.960;6.220;2022-07-22T14:03:24;100881.25;;;32.97;31.12
50268;BME280;36153;50.960;6.220;2022-07-22T14:06:26;100875.06;;;32.48;32.09
50268;BME280;36153;50.960;6.220;2022-07-22T14:09:26;100865.13;;;32.48;31.02
50268;BME280;36153;50.960;6.220;2022-07-22T14:12:27;100855.38;;;32.59;31.75
50268;BME280;36153;50.960;6.220;2022-07-22T14:15:28;100855.16;;;31.76;31.95
50268;BME280;36153;50.960;6.220;2022-07-22T14:18:28;100865.09;;;32.00;32.66
50268;BME280;36153;50.960;6.220;2022-07-22T14:21:28;100858.06;;;32.10;32.52
50268;BME280;36153;50.960;6.220;2022-07-22T14:24:29;100864.19;;;32.12;32.75
50268;BME280;36153;50.960;6.220;2022-07-22T14:27:30;100861.59;;;32.24;32.34
50268;BME280;36153;50.960;6.220;2022-07-22T14:30:31;100854.00;;;32.53;31.59
50268;BME280;36153;50.960;6.220;2022-07-22T14:33:32;100855.38;;;32.59;31.57
50268;BME280;36153;50.960;6.220;2022-07-22T14:36:32;100855.63;;;32.91;32.55
50268;BME280;36153;50.960;6.220;2022-07-22T14:39:32;100853.50;;;32.11;32.83
50268;BME280;36153;50.960;6.220;2022-07-22T14:42:33;100856.13;;;31.24;32.47
50268;BME280;36153;50.960;6.220;2022-07-22T14:45:33;100850.22;;;31.19;33.09
50268;BME280;36153;50.960;6.220;2022-07-22T14:48:33;100849.16;;;31.08;34.75
50268;BME280;36153;50.960;6.220;2022-07-22T14:51:34;100850.31;;;31.04;35.18
50268;BME280;36153;50.960;6.220;2022-07-22T14:54:35;100858.03;;;30.96;33.48
50268;BME280;36153;50.960;6.220;2022-07-22T14:57:35;100845.16;;;31.14;35.02
50268;BME280;36153;50.960;6.220;2022-07-22T15:00:35;100852.41;;;30.73;35.12
50268;BME280;36153;50.960;6.220;2022-07-22T15:03:36;100849.50;;;30.76;34.20
50268;BME280;36153;50.960;6.220;2022-07-22T15:06:36;100835.00;;;30.79;34.78
50268;BME280;36153;50.960;6.220;2022-07-22T15:09:36;100826.97;;;31.05;34.86
50268;BME280;36153;50.960;6.220;2022-07-22T15:12:37;100832.59;;;31.02;36.24
50268;BME280;36153;50.960;6.220;2022-07-22T15:15:37;100826.44;;;31.25;33.30
50268;BME280;36153;50.960;6.220;2022-07-22T15:18:38;100829.34;;;31.22;32.93
50268;BME280;36153;50.960;6.220;2022-07-22T15:21:39;100827.03;;;31.80;33.58
50268;BME280;36153;50.960;6.220;2022-07-22T15:24:39;100814.91;;;32.72;31.18
50268;BME280;36153;50.960;6.220;2022-07-22T15:27:40;100807.13;;;32.56;31.85
50268;BME280;36153;50.960;6.220;2022-07-22T15:30:40;100795.91;;;32.38;32.53
50268;BME280;36153;50.960;6.220;2022-07-22T15:33:40;100794.31;;;32.35;33.37
50268;BME280;36153;50.960;6.220;2022-07-22T15:36:41;100792.19;;;32.63;31.10
50268;BME280;36153;50.960;6.220;2022-07-22T15:39:41;100786.88;;;32.97;30.95
50268;BME280;36153;50.960;6.220;2022-07-22T15:42:42;100775.38;;;32.95;30.96
50268;BME280;36153;50.960;6.220;2022-07-22T15:45:42;100764.84;;;33.37;30.60
50268;BME280;36153;50.960;6.220;2022-07-22T15:48:42;100777.25;;;33.28;30.65
50268;BME280;36153;50.960;6.220;2022-07-22T15:51:44;100768.38;;;32.45;31.43
50268;BME280;36153;50.960;6.220;2022-07-22T15:54:44;100767.50;;;32.45;31.36
50268;BME280;36153;50.960;6.220;2022-07-22T15:57:45;100759.31;;;32.46;33.22
50268;BME280;36153;50.960;6.220;2022-07-22T16:01:04;100767.88;;;31.92;31.47